sensor_id;sensor_type;location;lat;lon;timestamp;P1;durP1;ratioP1;P2;durP2;ratioP2
9942;SDS011;5010;45.080;7.634;2023-02-03T00:00:37;16.63;;;14.90;;
9942;SDS011;5010;45.080;7.634;2023-02-03T00:03:06;21.98;;;13.68;;
9942;SDS011;5010;45.080;7.634;2023-02-03T00:05:32;15.15;;;13.80;;
9942;SDS011;5010;45.080;7.634;2023-02-03T00:08:01;17.73;;;13.10;;
9942;SDS011;5010;45.080;7.634;2023-02-03T00:10:29;16.27;;;14.52;;
9942;SDS011;5010;45.080;7.634;2023-02-03T00:12:56;17.88;;;14.48;;
9942;SDS011;5010;45.080;7.634;2023-02-03T00:15:22;15.27;;;13.60;;
9942;SDS011;5010;45.080;7.634;2023-02-03T00:17:49;20.58;;;12.30;;
9942;SDS011;5010;45.080;7.634;2023-02-03T00:20:18;18.92;;;16.25;;
9942;SDS011;5010;45.080;7.634;2023-02-03T00:22:45;16.60;;;13.73;;
9942;SDS011;5010;45.080;7.634;2023-02-03T00:25:11;15.35;;;11.10;;
9942;SDS011;5010;45.080;7.634;2023-02-03T00:27:39;22.35;;;13.68;;
9942;SDS011;5010;45.080;7.634;2023-02-03T00:30:06;15.05;;;13.70;;
9942;SDS011;5010;45.080;7.634;2023-02-03T00:32:33;18.38;;;13.02;;
9942;SDS011;5010;45.080;7.634;2023-02-03T00:35:00;16.65;;;13.77;;
9942;SDS011;5010;45.080;7.634;2023-02-03T00:37:28;17.38;;;14.50;;
9942;SDS011;5010;45.080;7.634;2023-02-03T00:39:55;17.50;;;14.82;;
9942;SDS011;5010;45.080;7.634;2023-02-03T00:42:22;16.42;;;14.85;;
9942;SDS011;5010;45.080;7.634;2023-02-03T00:44:49;16.65;;;13.30;;
9942;SDS011;5010;45.080;7.634;2023-02-03T00:47:15;17.42;;;12.73;;
9942;SDS011;5010;45.080;7.634;2023-02-03T00:49:42;15.45;;;14.43;;
9942;SDS011;5010;45.080;7.634;2023-02-03T00:52:09;18.65;;;13.73;;
9942;SDS011;5010;45.080;7.634;2023-02-03T00:54:37;18.40;;;13.63;;
9942;SDS011;5010;45.080;7.634;2023-02-03T00:57:04;16.17;;;13.90;;
9942;SDS011;5010;45.080;7.634;2023-02-03T00:59:31;17.45;;;13.38;;
9942;SDS011;5010;45.080;7.634;2023-02-03T01:01:58;19.23;;;16.20;;
9942;SDS011;5010;45.080;7.634;2023-02-03T01:04:25;15.18;;;13.88;;
9942;SDS011;5010;45.080;7.634;2023-02-03T01:06:51;15.30;;;14.45;;
9942;SDS011;5010;45.080;7.634;2023-02-03T01:09:21;21.15;;;14.85;;
9942;SDS011;5010;45.080;7.634;2023-02-03T01:11:49;19.98;;;13.48;;
9942;SDS011;5010;45.080;7.634;2023-02-03T01:14:16;18.17;;;13.35;;
9942;SDS011;5010;45.080;7.634;2023-02-03T01:16:43;18.17;;;15.85;;
9942;SDS011;5010;45.080;7.634;2023-02-03T01:19:10;19.77;;;14.18;;
9942;SDS011;5010;45.080;7.634;2023-02-03T01:21:38;18.10;;;13.30;;
9942;SDS011;5010;45.080;7.634;2023-02-03T01:24:05;16.35;;;13.35;;
9942;SDS011;5010;45.080;7.634;2023-02-03T01:26:33;15.05;;;14.20;;
9942;SDS011;5010;45.080;7.634;2023-02-03T01:29:02;16.77;;;13.85;;
9942;SDS011;5010;45.080;7.634;2023-02-03T01:31:30;19.70;;;14.23;;
9942;SDS011;5010;45.080;7.634;2023-02-03T01:33:59;16.23;;;15.43;;
9942;SDS011;5010;45.080;7.634;2023-02-03T01:36:27;17.73;;;14.43;;
9942;SDS011;5010;45.080;7.634;2023-02-03T01:38:56;16.50;;;14.38;;
9942;SDS011;5010;45.080;7.634;2023-02-03T01:41:24;19.55;;;15.80;;
9942;SDS011;5010;45.080;7.634;2023-02-03T01:43:53;26.55;;;16.65;;
9942;SDS011;5010;45.080;7.634;2023-02-03T01:46:28;16.70;;;15.88;;
9942;SDS011;5010;45.080;7.634;2023-02-03T01:48:59;18.50;;;14.90;;
9942;SDS011;5010;45.080;7.634;2023-02-03T01:51:31;21.40;;;14.90;;
9942;SDS011;5010;45.080;7.634;2023-02-03T01:53:58;21.05;;;15.85;;
9942;SDS011;5010;45.080;7.634;2023-02-03T01:56:26;15.07;;;13.93;;
9942;SDS011;5010;45.080;7.634;2023-02-03T01:58:57;17.85;;;14.07;;
9942;SDS011;5010;45.080;7.634;2023-02-03T02:01:25;18.08;;;15.18;;
9942;SDS011;5010;45.080;7.634;2023-02-03T02:03:55;22.17;;;16.02;;
9942;SDS011;5010;45.080;7.634;2023-02-03T02:06:24;18.67;;;15.15;;
9942;SDS011;5010;45.080;7.634;2023-02-03T02:08:51;16.52;;;13.77;;
9942;SDS011;5010;45.080;7.634;2023-02-03T02:11:20;16.92;;;13.52;;
9942;SDS011;5010;45.080;7.634;2023-02-03T02:13:47;17.75;;;13.95;;
9942;SDS011;5010;45.080;7.634;2023-02-03T02:16:16;20.90;;;14.70;;
9942;SDS011;5010;45.080;7.634;2023-02-03T02:18:52;19.25;;;14.57;;
9942;SDS011;5010;45.080;7.634;2023-02-03T02:27:47;19.13;;;13.85;;
9942;SDS011;5010;45.080;7.634;2023-02-03T02:30:48;21.63;;;16.90;;
9942;SDS011;5010;45.080;7.634;2023-02-03T02:33:47;19.25;;;17.55;;
9942;SDS011;5010;45.080;7.634;2023-02-03T02:36:25;15.35;;;14.52;;
9942;SDS011;5010;45.080;7.634;2023-02-03T02:38:57;20.05;;;15.90;;
9942;SDS011;5010;45.080;7.634;2023-02-03T02:41:28;18.52;;;16.00;;
9942;SDS011;5010;45.080;7.634;2023-02-03T02:44:04;17.83;;;15.50;;
9942;SDS011;5010;45.080;7.634;2023-02-03T02:46:36;18.55;;;16.25;;
9942;SDS011;5010;45.080;7.634;2023-02-03T02:49:08;16.65;;;15.82;;
9942;SDS011;5010;45.080;7.634;2023-02-03T02:51:40;17.35;;;14.23;;
9942;SDS011;5010;45.080;7.634;2023-02-03T02:54:10;20.20;;;16.13;;
9942;SDS011;5010;45.080;7.634;2023-02-03T02:56:41;20.48;;;16.77;;
9942;SDS011;5010;45.080;7.634;2023-02-03T02:59:10;15.32;;;14.50;;
9942;SDS011;5010;45.080;7.634;2023-02-03T03:01:37;16.85;;;15.90;;
9942;SDS011;5010;45.080;7.634;2023-02-03T03:04:05;20.58;;;16.00;;
9942;SDS011;5010;45.080;7.634;2023-02-03T03:06:36;15.07;;;13.52;;
9942;SDS011;5010;45.080;7.634;2023-02-03T03:09:07;17.58;;;14.50;;
9942;SDS011;5010;45.080;7.634;2023-02-03T03:11:38;15.60;;;14.75;;
9942;SDS011;5010;45.080;7.634;2023-02-03T03:14:10;19.35;;;13.23;;
9942;SDS011;5010;45.080;7.634;2023-02-03T03:16:40;19.65;;;14.95;;
9942;SDS011;5010;45.080;7.634;2023-02-03T03:19:15;16.58;;;13.45;;
9942;SDS011;5010;45.080;7.634;2023-02-03T03:21:46;18.58;;;14.50;;
9942;SDS011;5010;45.080;7.634;2023-02-03T03:24:18;16.90;;;13.13;;
9942;SDS011;5010;45.080;7.634;2023-02-03T03:26:49;22.65;;;15.98;;
9942;SDS011;5010;45.080;7.634;2023-02-03T03:29:23;21.08;;;16.98;;
9942;SDS011;5010;45.080;7.634;2023-02-03T03:31:54;20.00;;;15.80;;
9942;SDS011;5010;45.080;7.634;2023-02-03T03:34:23;16.50;;;15.50;;
9942;SDS011;5010;45.080;7.634;2023-02-03T03:36:52;15.57;;;14.80;;
9942;SDS011;5010;45.080;7.634;2023-02-03T03:39:27;15.93;;;14.02;;
9942;SDS011;5010;45.080;7.634;2023-02-03T03:42:01;19.25;;;14.43;;
9942;SDS011;5010;45.080;7.634;2023-02-03T03:44:34;19.27;;;14.63;;
9942;SDS011;5010;45.080;7.634;2023-02-03T03:47:09;16.48;;;13.70;;
9942;SDS011;5010;45.080;7.634;2023-02-03T03:49:43;15.60;;;14.77;;
9942;SDS011;5010;45.080;7.634;2023-02-03T03:52:13;18.23;;;15.70;;
9942;SDS011;5010;45.080;7.634;2023-02-03T03:54:43;18.13;;;15.52;;
9942;SDS011;5010;45.080;7.634;2023-02-03T03:57:12;17.15;;;14.80;;
9942;SDS011;5010;45.080;7.634;2023-02-03T03:59:44;16.65;;;14.15;;
9942;SDS011;5010;45.080;7.634;2023-02-03T04:02:14;16.35;;;14.48;;
9942;SDS011;5010;45.080;7.634;2023-02-03T04:04:43;22.77;;;16.25;;
9942;SDS011;5010;45.080;7.634;2023-02-03T04:07:11;19.45;;;15.18;;
9942;SDS011;5010;45.080;7.634;2023-02-03T04:09:39;15.93;;;13.43;;
9942;SDS011;5010;45.080;7.634;2023-02-03T04:12:08;14.48;;;13.68;;
9942;SDS011;5010;45.080;7.634;2023-02-03T04:14:41;18.88;;;14.25;;
9942;SDS011;5010;45.080;7.634;2023-02-03T04:17:08;17.73;;;14.02;;
9942;SDS011;5010;45.080;7.634;2023-02-03T04:19:35;18.20;;;12.82;;
9942;SDS011;5010;45.080;7.634;2023-02-03T04:22:03;13.57;;;12.88;;
9942;SDS011;5010;45.080;7.634;2023-02-03T04:24:30;17.92;;;12.93;;
9942;SDS011;5010;45.080;7.634;2023-02-03T04:26:57;19.55;;;14.43;;
9942;SDS011;5010;45.080;7.634;2023-02-03T04:29:23;17.73;;;12.85;;
9942;SDS011;5010;45.080;7.634;2023-02-03T04:31:50;16.73;;;13.63;;
9942;SDS011;5010;45.080;7.634;2023-02-03T04:34:17;18.40;;;13.80;;
9942;SDS011;5010;45.080;7.634;2023-02-03T04:36:44;17.05;;;13.93;;
9942;SDS011;5010;45.080;7.634;2023-02-03T04:39:12;19.10;;;14.10;;
9942;SDS011;5010;45.080;7.634;2023-02-03T04:41:39;13.93;;;12.05;;
9942;SDS011;5010;45.080;7.634;2023-02-03T04:44:06;15.45;;;12.93;;
9942;SDS011;5010;45.080;7.634;2023-02-03T04:46:33;16.38;;;12.90;;
9942;SDS011;5010;45.080;7.634;2023-02-03T04:48:59;18.88;;;13.88;;
9942;SDS011;5010;45.080;7.634;2023-02-03T04:51:26;16.35;;;13.95;;
9942;SDS011;5010;45.080;7.634;2023-02-03T04:53:53;16.60;;;13.45;;
9942;SDS011;5010;45.080;7.634;2023-02-03T04:56:21;12.65;;;12.02;;
9942;SDS011;5010;45.080;7.634;2023-02-03T04:58:48;12.10;;;11.50;;
9942;SDS011;5010;45.080;7.634;2023-02-03T05:01:15;16.00;;;14.23;;
9942;SDS011;5010;45.080;7.634;2023-02-03T05:03:42;15.35;;;14.55;;
9942;SDS011;5010;45.080;7.634;2023-02-03T05:06:09;14.68;;;12.45;;
9942;SDS011;5010;45.080;7.634;2023-02-03T05:08:35;18.55;;;13.68;;
9942;SDS011;5010;45.080;7.634;2023-02-03T05:11:02;15.85;;;13.10;;
9942;SDS011;5010;45.080;7.634;2023-02-03T05:13:31;14.45;;;12.48;;
9942;SDS011;5010;45.080;7.634;2023-02-03T05:15:57;15.13;;;12.68;;
9942;SDS011;5010;45.080;7.634;2023-02-03T05:18:24;14.32;;;12.60;;
9942;SDS011;5010;45.080;7.634;2023-02-03T05:20:51;12.82;;;12.15;;
9942;SDS011;5010;45.080;7.634;2023-02-03T05:23:18;13.13;;;11.18;;
9942;SDS011;5010;45.080;7.634;2023-02-03T05:25:45;19.38;;;13.15;;
9942;SDS011;5010;45.080;7.634;2023-02-03T05:28:11;16.80;;;11.55;;
9942;SDS011;5010;45.080;7.634;2023-02-03T05:30:40;17.45;;;13.10;;
9942;SDS011;5010;45.080;7.634;2023-02-03T05:33:07;14.95;;;11.32;;
9942;SDS011;5010;45.080;7.634;2023-02-03T05:35:34;14.50;;;12.50;;
9942;SDS011;5010;45.080;7.634;2023-02-03T05:38:01;15.45;;;12.07;;
9942;SDS011;5010;45.080;7.634;2023-02-03T05:40:28;17.77;;;13.45;;
9942;SDS011;5010;45.080;7.634;2023-02-03T05:43:12;13.38;;;9.85;;
9942;SDS011;5010;45.080;7.634;2023-02-03T05:45:40;14.50;;;13.27;;
9942;SDS011;5010;45.080;7.634;2023-02-03T05:48:07;15.35;;;14.63;;
9942;SDS011;5010;45.080;7.634;2023-02-03T05:50:35;13.40;;;12.70;;
9942;SDS011;5010;45.080;7.634;2023-02-03T05:53:03;14.40;;;13.63;;
9942;SDS011;5010;45.080;7.634;2023-02-03T05:55:31;18.52;;;12.82;;
9942;SDS011;5010;45.080;7.634;2023-02-03T05:57:59;13.95;;;12.55;;
9942;SDS011;5010;45.080;7.634;2023-02-03T06:00:26;16.42;;;12.43;;
9942;SDS011;5010;45.080;7.634;2023-02-03T06:02:55;18.90;;;14.52;;
9942;SDS011;5010;45.080;7.634;2023-02-03T06:05:24;16.60;;;13.13;;
9942;SDS011;5010;45.080;7.634;2023-02-03T06:07:51;12.98;;;11.20;;
9942;SDS011;5010;45.080;7.634;2023-02-03T06:10:18;12.43;;;11.55;;
9942;SDS011;5010;45.080;7.634;2023-02-03T06:12:45;13.48;;;12.55;;
9942;SDS011;5010;45.080;7.634;2023-02-03T06:15:13;16.35;;;13.07;;
9942;SDS011;5010;45.080;7.634;2023-02-03T06:17:42;13.57;;;12.38;;
9942;SDS011;5010;45.080;7.634;2023-02-03T06:20:12;15.77;;;13.07;;
9942;SDS011;5010;45.080;7.634;2023-02-03T06:22:39;12.60;;;10.32;;
9942;SDS011;5010;45.080;7.634;2023-02-03T06:25:07;13.93;;;11.90;;
9942;SDS011;5010;45.080;7.634;2023-02-03T06:27:34;11.93;;;10.93;;
9942;SDS011;5010;45.080;7.634;2023-02-03T06:30:01;14.00;;;11.10;;
9942;SDS011;5010;45.080;7.634;2023-02-03T06:32:29;13.82;;;11.57;;
9942;SDS011;5010;45.080;7.634;2023-02-03T06:34:55;13.55;;;12.48;;
9942;SDS011;5010;45.080;7.634;2023-02-03T06:37:24;13.13;;;11.25;;
9942;SDS011;5010;45.080;7.634;2023-02-03T06:39:50;12.93;;;12.23;;
9942;SDS011;5010;45.080;7.634;2023-02-03T06:42:17;12.77;;;10.57;;
9942;SDS011;5010;45.080;7.634;2023-02-03T06:44:44;13.93;;;12.02;;
9942;SDS011;5010;45.080;7.634;2023-02-03T06:47:11;12.18;;;10.75;;
9942;SDS011;5010;45.080;7.634;2023-02-03T06:49:38;15.48;;;12.32;;
9942;SDS011;5010;45.080;7.634;2023-02-03T06:52:04;13.73;;;11.85;;
9942;SDS011;5010;45.080;7.634;2023-02-03T06:54:33;13.48;;;11.90;;
9942;SDS011;5010;45.080;7.634;2023-02-03T06:57:00;13.73;;;13.05;;
9942;SDS011;5010;45.080;7.634;2023-02-03T06:59:28;12.98;;;11.20;;
9942;SDS011;5010;45.080;7.634;2023-02-03T07:01:55;14.75;;;11.63;;
9942;SDS011;5010;45.080;7.634;2023-02-03T07:04:21;13.45;;;12.02;;
9942;SDS011;5010;45.080;7.634;2023-02-03T07:06:52;12.90;;;11.68;;
9942;SDS011;5010;45.080;7.634;2023-02-03T07:09:19;15.02;;;11.07;;
9942;SDS011;5010;45.080;7.634;2023-02-03T07:11:47;14.45;;;10.98;;
9942;SDS011;5010;45.080;7.634;2023-02-03T07:14:14;15.20;;;12.93;;
9942;SDS011;5010;45.080;7.634;2023-02-03T07:16:41;13.00;;;12.23;;
9942;SDS011;5010;45.080;7.634;2023-02-03T07:19:08;17.13;;;11.80;;
9942;SDS011;5010;45.080;7.634;2023-02-03T07:21:35;11.68;;;10.95;;
9942;SDS011;5010;45.080;7.634;2023-02-03T07:24:02;12.98;;;10.43;;
9942;SDS011;5010;45.080;7.634;2023-02-03T07:26:29;11.55;;;9.15;;
9942;SDS011;5010;45.080;7.634;2023-02-03T07:28:57;11.77;;;8.95;;
9942;SDS011;5010;45.080;7.634;2023-02-03T07:31:24;14.88;;;10.65;;
9942;SDS011;5010;45.080;7.634;2023-02-03T07:33:51;13.55;;;10.90;;
9942;SDS011;5010;45.080;7.634;2023-02-03T07:36:18;14.07;;;11.90;;
9942;SDS011;5010;45.080;7.634;2023-02-03T07:38:45;13.88;;;10.95;;
9942;SDS011;5010;45.080;7.634;2023-02-03T07:41:12;16.40;;;13.02;;
9942;SDS011;5010;45.080;7.634;2023-02-03T07:43:39;15.60;;;13.10;;
9942;SDS011;5010;45.080;7.634;2023-02-03T07:46:07;15.15;;;12.52;;
9942;SDS011;5010;45.080;7.634;2023-02-03T07:48:34;12.27;;;11.20;;
9942;SDS011;5010;45.080;7.634;2023-02-03T07:51:00;13.30;;;10.55;;
9942;SDS011;5010;45.080;7.634;2023-02-03T07:53:27;14.70;;;12.27;;
9942;SDS011;5010;45.080;7.634;2023-02-03T07:55:54;15.27;;;11.50;;
9942;SDS011;5010;45.080;7.634;2023-02-03T07:58:25;12.57;;;11.75;;
9942;SDS011;5010;45.080;7.634;2023-02-03T08:00:52;14.73;;;12.25;;
9942;SDS011;5010;45.080;7.634;2023-02-03T08:03:21;12.07;;;11.18;;
9942;SDS011;5010;45.080;7.634;2023-02-03T08:05:48;16.38;;;12.18;;
9942;SDS011;5010;45.080;7.634;2023-02-03T08:08:16;14.52;;;11.75;;
9942;SDS011;5010;45.080;7.634;2023-02-03T08:10:43;13.55;;;12.48;;
9942;SDS011;5010;45.080;7.634;2023-02-03T08:13:10;10.73;;;10.15;;
9942;SDS011;5010;45.080;7.634;2023-02-03T08:15:36;12.50;;;10.90;;
9942;SDS011;5010;45.080;7.634;2023-02-03T08:18:03;14.50;;;10.85;;
9942;SDS011;5010;45.080;7.634;2023-02-03T08:20:34;12.68;;;10.40;;
9942;SDS011;5010;45.080;7.634;2023-02-03T08:23:00;14.50;;;11.75;;
9942;SDS011;5010;45.080;7.634;2023-02-03T08:25:27;11.60;;;10.15;;
9942;SDS011;5010;45.080;7.634;2023-02-03T08:27:54;17.33;;;12.77;;
9942;SDS011;5010;45.080;7.634;2023-02-03T08:30:21;15.05;;;10.60;;
9942;SDS011;5010;45.080;7.634;2023-02-03T08:32:48;14.30;;;10.65;;
9942;SDS011;5010;45.080;7.634;2023-02-03T08:35:15;17.90;;;13.10;;
9942;SDS011;5010;45.080;7.634;2023-02-03T08:37:44;14.45;;;11.75;;
9942;SDS011;5010;45.080;7.634;2023-02-03T08:40:11;15.23;;;13.13;;
9942;SDS011;5010;45.080;7.634;2023-02-03T08:42:38;16.23;;;10.05;;
9942;SDS011;5010;45.080;7.634;2023-02-03T08:45:05;15.13;;;10.50;;
9942;SDS011;5010;45.080;7.634;2023-02-03T08:47:33;15.18;;;11.80;;
9942;SDS011;5010;45.080;7.634;2023-02-03T08:50:01;13.55;;;11.90;;
9942;SDS011;5010;45.080;7.634;2023-02-03T08:52:28;16.58;;;12.02;;
9942;SDS011;5010;45.080;7.634;2023-02-03T08:54:56;12.43;;;11.45;;
9942;SDS011;5010;45.080;7.634;2023-02-03T08:57:23;16.00;;;10.45;;
9942;SDS011;5010;45.080;7.634;2023-02-03T08:59:50;13.30;;;11.90;;
9942;SDS011;5010;45.080;7.634;2023-02-03T09:02:17;14.40;;;11.30;;
9942;SDS011;5010;45.080;7.634;2023-02-03T09:04:45;14.43;;;11.70;;
9942;SDS011;5010;45.080;7.634;2023-02-03T09:07:13;20.67;;;12.68;;
9942;SDS011;5010;45.080;7.634;2023-02-03T09:09:43;14.00;;;11.07;;
9942;SDS011;5010;45.080;7.634;2023-02-03T09:12:12;14.77;;;12.80;;
9942;SDS011;5010;45.080;7.634;2023-02-03T09:14:39;13.63;;;11.52;;
9942;SDS011;5010;45.080;7.634;2023-02-03T09:17:06;17.85;;;12.55;;
9942;SDS011;5010;45.080;7.634;2023-02-03T09:19:34;15.40;;;12.95;;
9942;SDS011;5010;45.080;7.634;2023-02-03T09:22:01;16.08;;;14.45;;
9942;SDS011;5010;45.080;7.634;2023-02-03T09:24:29;18.60;;;14.68;;
9942;SDS011;5010;45.080;7.634;2023-02-03T09:26:56;21.27;;;14.23;;
9942;SDS011;5010;45.080;7.634;2023-02-03T09:29:26;18.02;;;13.73;;
9942;SDS011;5010;45.080;7.634;2023-02-03T09:31:53;13.93;;;11.02;;
9942;SDS011;5010;45.080;7.634;2023-02-03T09:34:20;22.17;;;16.80;;
9942;SDS011;5010;45.080;7.634;2023-02-03T09:36:47;19.05;;;12.50;;
9942;SDS011;5010;45.080;7.634;2023-02-03T09:39:15;13.77;;;10.48;;
9942;SDS011;5010;45.080;7.634;2023-02-03T09:44:37;14.05;;;12.43;;
9942;SDS011;5010;45.080;7.634;2023-02-03T09:47:11;14.27;;;13.60;;
9942;SDS011;5010;45.080;7.634;2023-02-03T09:49:41;16.10;;;11.18;;
9942;SDS011;5010;45.080;7.634;2023-02-03T09:52:12;13.55;;;12.73;;
9942;SDS011;5010;45.080;7.634;2023-02-03T09:54:43;14.82;;;13.88;;
9942;SDS011;5010;45.080;7.634;2023-02-03T09:57:17;19.10;;;14.57;;
9942;SDS011;5010;45.080;7.634;2023-02-03T09:59:49;18.55;;;13.68;;
9942;SDS011;5010;45.080;7.634;2023-02-03T10:02:20;14.43;;;11.77;;
9942;SDS011;5010;45.080;7.634;2023-02-03T10:04:58;14.48;;;12.85;;
9942;SDS011;5010;45.080;7.634;2023-02-03T10:07:32;15.02;;;13.35;;
9942;SDS011;5010;45.080;7.634;2023-02-03T10:10:07;14.73;;;13.35;;
9942;SDS011;5010;45.080;7.634;2023-02-03T10:12:45;18.13;;;13.35;;
9942;SDS011;5010;45.080;7.634;2023-02-03T10:15:37;14.93;;;13.00;;
9942;SDS011;5010;45.080;7.634;2023-02-03T10:18:18;14.88;;;11.70;;
9942;SDS011;5010;45.080;7.634;2023-02-03T10:20:48;11.55;;;10.43;;
9942;SDS011;5010;45.080;7.634;2023-02-03T10:23:21;15.50;;;12.23;;
9942;SDS011;5010;45.080;7.634;2023-02-03T10:25:54;12.40;;;11.05;;
9942;SDS011;5010;45.080;7.634;2023-02-03T10:28:24;16.52;;;11.30;;
9942;SDS011;5010;45.080;7.634;2023-02-03T10:30:56;20.55;;;12.88;;
9942;SDS011;5010;45.080;7.634;2023-02-03T10:33:24;13.18;;;11.35;;
9942;SDS011;5010;45.080;7.634;2023-02-03T10:35:53;13.63;;;12.45;;
9942;SDS011;5010;45.080;7.634;2023-02-03T10:38:31;14.80;;;13.63;;
9942;SDS011;5010;45.080;7.634;2023-02-03T10:41:06;14.30;;;12.60;;
9942;SDS011;5010;45.080;7.634;2023-02-03T10:43:33;15.18;;;12.32;;
9942;SDS011;5010;45.080;7.634;2023-02-03T10:46:14;11.95;;;10.60;;
9942;SDS011;5010;45.080;7.634;2023-02-03T10:48:41;13.65;;;11.82;;
9942;SDS011;5010;45.080;7.634;2023-02-03T10:51:10;12.60;;;11.95;;
9942;SDS011;5010;45.080;7.634;2023-02-03T10:53:45;12.70;;;10.45;;
9942;SDS011;5010;45.080;7.634;2023-02-03T10:56:13;15.70;;;12.45;;
9942;SDS011;5010;45.080;7.634;2023-02-03T10:58:46;14.50;;;12.38;;
9942;SDS011;5010;45.080;7.634;2023-02-03T11:01:16;9.63;;;9.02;;
9942;SDS011;5010;45.080;7.634;2023-02-03T11:03:53;13.25;;;11.20;;
9942;SDS011;5010;45.080;7.634;2023-02-03T11:06:24;12.38;;;11.80;;
9942;SDS011;5010;45.080;7.634;2023-02-03T11:08:52;12.48;;;11.20;;
9942;SDS011;5010;45.080;7.634;2023-02-03T11:11:20;15.88;;;11.88;;
9942;SDS011;5010;45.080;7.634;2023-02-03T11:13:52;15.43;;;12.80;;
9942;SDS011;5010;45.080;7.634;2023-02-03T11:16:37;14.80;;;12.40;;
9942;SDS011;5010;45.080;7.634;2023-02-03T11:19:05;13.57;;;11.32;;
9942;SDS011;5010;45.080;7.634;2023-02-03T11:21:41;13.77;;;11.40;;
9942;SDS011;5010;45.080;7.634;2023-02-03T11:24:12;15.85;;;11.10;;
9942;SDS011;5010;45.080;7.634;2023-02-03T11:26:44;13.02;;;11.85;;
9942;SDS011;5010;45.080;7.634;2023-02-03T11:29:15;12.75;;;12.00;;
9942;SDS011;5010;45.080;7.634;2023-02-03T11:31:47;13.18;;;11.68;;
9942;SDS011;5010;45.080;7.634;2023-02-03T11:34:16;9.88;;;8.52;;
9942;SDS011;5010;45.080;7.634;2023-02-03T11:36:48;14.35;;;11.60;;
9942;SDS011;5010;45.080;7.634;2023-02-03T11:39:16;12.02;;;11.10;;
9942;SDS011;5010;45.080;7.634;2023-02-03T11:41:50;13.50;;;10.40;;
9942;SDS011;5010;45.080;7.634;2023-02-03T11:44:19;14.25;;;10.90;;
9942;SDS011;5010;45.080;7.634;2023-02-03T11:46:52;11.30;;;10.52;;
9942;SDS011;5010;45.080;7.634;2023-02-03T11:49:28;13.93;;;11.13;;
9942;SDS011;5010;45.080;7.634;2023-02-03T11:55:19;12.07;;;8.82;;
9942;SDS011;5010;45.080;7.634;2023-02-03T11:57:59;12.60;;;11.95;;
9942;SDS011;5010;45.080;7.634;2023-02-03T12:00:39;9.90;;;7.97;;
9942;SDS011;5010;45.080;7.634;2023-02-03T12:08:59;14.20;;;10.57;;
9942;SDS011;5010;45.080;7.634;2023-02-03T12:11:39;12.55;;;11.90;;
9942;SDS011;5010;45.080;7.634;2023-02-03T12:14:25;13.75;;;10.30;;
9942;SDS011;5010;45.080;7.634;2023-02-03T12:17:09;12.90;;;10.65;;
9942;SDS011;5010;45.080;7.634;2023-02-03T12:19:57;10.95;;;8.88;;
9942;SDS011;5010;45.080;7.634;2023-02-03T12:22:31;11.95;;;7.72;;
9942;SDS011;5010;45.080;7.634;2023-02-03T12:25:14;14.38;;;11.27;;
9942;SDS011;5010;45.080;7.634;2023-02-03T12:27:55;12.02;;;9.98;;
9942;SDS011;5010;45.080;7.634;2023-02-03T12:30:34;15.82;;;10.85;;
9942;SDS011;5010;45.080;7.634;2023-02-03T12:33:10;14.38;;;10.45;;
9942;SDS011;5010;45.080;7.634;2023-02-03T12:35:44;20.25;;;13.20;;
9942;SDS011;5010;45.080;7.634;2023-02-03T12:38:16;14.50;;;11.40;;
9942;SDS011;5010;45.080;7.634;2023-02-03T12:40:53;15.20;;;10.27;;
9942;SDS011;5010;45.080;7.634;2023-02-03T12:43:24;17.80;;;14.07;;
9942;SDS011;5010;45.080;7.634;2023-02-03T12:46:02;20.00;;;13.38;;
9942;SDS011;5010;45.080;7.634;2023-02-03T12:48:37;15.77;;;13.07;;
9942;SDS011;5010;45.080;7.634;2023-02-03T12:51:12;15.65;;;13.60;;
9942;SDS011;5010;45.080;7.634;2023-02-03T12:53:46;18.05;;;13.23;;
9942;SDS011;5010;45.080;7.634;2023-02-03T12:56:20;16.33;;;14.00;;
9942;SDS011;5010;45.080;7.634;2023-02-03T12:58:52;16.35;;;10.63;;
9942;SDS011;5010;45.080;7.634;2023-02-03T13:01:23;23.58;;;14.77;;
9942;SDS011;5010;45.080;7.634;2023-02-03T13:03:54;14.85;;;13.15;;
9942;SDS011;5010;45.080;7.634;2023-02-03T13:06:30;14.63;;;12.85;;
9942;SDS011;5010;45.080;7.634;2023-02-03T13:09:02;20.73;;;13.20;;
9942;SDS011;5010;45.080;7.634;2023-02-03T13:11:45;17.42;;;10.77;;
9942;SDS011;5010;45.080;7.634;2023-02-03T13:14:18;20.10;;;14.30;;
9942;SDS011;5010;45.080;7.634;2023-02-03T13:16:52;20.58;;;12.30;;
9942;SDS011;5010;45.080;7.634;2023-02-03T13:19:24;13.27;;;11.27;;
9942;SDS011;5010;45.080;7.634;2023-02-03T13:21:55;12.75;;;10.25;;
9942;SDS011;5010;45.080;7.634;2023-02-03T13:24:22;16.77;;;10.63;;
9942;SDS011;5010;45.080;7.634;2023-02-03T13:26:58;16.20;;;13.30;;
9942;SDS011;5010;45.080;7.634;2023-02-03T13:29:49;13.27;;;11.05;;
9942;SDS011;5010;45.080;7.634;2023-02-03T13:32:36;13.45;;;10.85;;
9942;SDS011;5010;45.080;7.634;2023-02-03T13:41:10;9.82;;;9.32;;
9942;SDS011;5010;45.080;7.634;2023-02-03T13:43:45;12.82;;;9.98;;
9942;SDS011;5010;45.080;7.634;2023-02-03T13:46:18;9.93;;;8.65;;
9942;SDS011;5010;45.080;7.634;2023-02-03T13:48:48;11.65;;;9.18;;
9942;SDS011;5010;45.080;7.634;2023-02-03T13:51:16;9.43;;;8.23;;
9942;SDS011;5010;45.080;7.634;2023-02-03T13:53:48;7.38;;;5.00;;
9942;SDS011;5010;45.080;7.634;2023-02-03T13:56:18;12.23;;;8.20;;
9942;SDS011;5010;45.080;7.634;2023-02-03T14:01:52;7.30;;;5.55;;
9942;SDS011;5010;45.080;7.634;2023-02-03T14:04:58;11.00;;;7.53;;
9942;SDS011;5010;45.080;7.634;2023-02-03T14:07:30;9.60;;;7.68;;
9942;SDS011;5010;45.080;7.634;2023-02-03T14:10:12;7.35;;;5.75;;
9942;SDS011;5010;45.080;7.634;2023-02-03T14:12:54;9.50;;;7.50;;
9942;SDS011;5010;45.080;7.634;2023-02-03T14:15:31;10.82;;;5.85;;
9942;SDS011;5010;45.080;7.634;2023-02-03T14:23:47;11.02;;;7.15;;
9942;SDS011;5010;45.080;7.634;2023-02-03T14:26:20;9.13;;;8.02;;
9942;SDS011;5010;45.080;7.634;2023-02-03T14:28:49;8.88;;;6.40;;
9942;SDS011;5010;45.080;7.634;2023-02-03T14:31:17;8.40;;;7.13;;
9942;SDS011;5010;45.080;7.634;2023-02-03T14:36:46;8.27;;;6.50;;
9942;SDS011;5010;45.080;7.634;2023-02-03T14:42:43;9.43;;;5.65;;
9942;SDS011;5010;45.080;7.634;2023-02-03T14:45:33;8.35;;;6.70;;
9942;SDS011;5010;45.080;7.634;2023-02-03T14:48:25;6.78;;;5.32;;
9942;SDS011;5010;45.080;7.634;2023-02-03T14:51:06;7.22;;;6.22;;
9942;SDS011;5010;45.080;7.634;2023-02-03T14:56:46;9.18;;;5.95;;
9942;SDS011;5010;45.080;7.634;2023-02-03T14:59:42;9.65;;;7.60;;
9942;SDS011;5010;45.080;7.634;2023-02-03T15:02:14;8.13;;;6.68;;
9942;SDS011;5010;45.080;7.634;2023-02-03T15:04:43;7.00;;;6.18;;
9942;SDS011;5010;45.080;7.634;2023-02-03T15:10:12;7.45;;;6.78;;
9942;SDS011;5010;45.080;7.634;2023-02-03T15:15:27;7.75;;;5.53;;
9942;SDS011;5010;45.080;7.634;2023-02-03T15:17:56;8.93;;;4.72;;
9942;SDS011;5010;45.080;7.634;2023-02-03T15:20:28;10.90;;;6.60;;
9942;SDS011;5010;45.080;7.634;2023-02-03T15:22:58;8.02;;;6.85;;
9942;SDS011;5010;45.080;7.634;2023-02-03T15:25:26;10.23;;;6.25;;
9942;SDS011;5010;45.080;7.634;2023-02-03T15:28:08;6.82;;;5.95;;
9942;SDS011;5010;45.080;7.634;2023-02-03T15:30:37;8.15;;;6.82;;
9942;SDS011;5010;45.080;7.634;2023-02-03T15:33:06;9.10;;;4.78;;
9942;SDS011;5010;45.080;7.634;2023-02-03T15:35:39;7.55;;;5.50;;
9942;SDS011;5010;45.080;7.634;2023-02-03T15:38:10;9.82;;;5.80;;
9942;SDS011;5010;45.080;7.634;2023-02-03T15:40:41;7.78;;;6.90;;
9942;SDS011;5010;45.080;7.634;2023-02-03T15:43:12;6.15;;;5.05;;
9942;SDS011;5010;45.080;7.634;2023-02-03T15:45:46;7.72;;;6.47;;
9942;SDS011;5010;45.080;7.634;2023-02-03T15:48:22;7.13;;;5.40;;
9942;SDS011;5010;45.080;7.634;2023-02-03T15:50:55;10.07;;;6.40;;
9942;SDS011;5010;45.080;7.634;2023-02-03T15:53:26;8.27;;;6.30;;
9942;SDS011;5010;45.080;7.634;2023-02-03T15:55:56;9.25;;;6.57;;
9942;SDS011;5010;45.080;7.634;2023-02-03T15:58:28;6.10;;;4.60;;